Portada
METAR-TAF:

METAR-TAF

Aeroports :

Atirau, Kazakhstan

latitud: 47-07-19N, longitud: 051-49-17E, altitud: -22 m

Observació

L'informe es va fer fa 35 minuts, a les 15:00 UTC
Vent 12 kt del Est
Temperatura 23°C
Humitat 9%
Pressió 1024 hPa
Visibilitat 10 km o més
sense núvols per sota de 1500 mi sense presència de cumulonimbus.

METAR: UATG 131500Z 08006MPS CAVOK 23/M11 Q1024 R14/CLRD70 NOSIG RMK QFE770/1026

Hora: 21:35 (15:35 UTC)

Pronòstic

L'informe es va fer fa 4 hores i 35 minuts, a les 11:00 UTC
Pronòstic vàlid del 13 a les 12 UTC al 14 a les 12 UTC
Vent 21 kt del Est
Visibilitat 10 km o més
Núvols disperses a una alçada de 3300 ft
Evolucionant progressivament
l' 13 a les 14 UTC al 13 a les 16 UTC
Vent 12 kt del Est
Evolucionant progressivament
l' 14 a les 05 UTC al 14 a les 06 UTC
Vent 14 kt del Est/Sud-Est amb ràfegues de 23 kt

TAF: UATG 131100Z 1312/1412 09011MPS 9999 SCT033 TX25/1412Z TN10/1403Z BECMG 1314/1316 08006MPS BECMG 1405/1406 11007G12MPS

Observacions i pronòstics meteorològics de més de 4000 aeroports (METAR i TAF).

Les estacions disponibles són els punts grocs i vermells al mapa.

Posi el ratolí al punt desitjat per veure el nom de l'estació.

Feu clic per veure les observacions i els pronòstics meteorològics.

Per canviar el mapa: feu clic els botons verds amb una creu de color negre per apropar; al botó verd amb un guió per allunyar la imatge; o en les fletxes verdes per a mapes adjacents.


METAR-TAF: